Time;durP1;ratioP1;P1;durP2;ratioP2;P2;SDS_P1;SDS_P2;PMS_P1;PMS_P2;Temp;Humidity;BMP_temperature;BMP_pressure;BME280_temperature;BME280_humidity;BME280_pressure;Samples;Min_cycle;Max_cycle;Signal;HPM_P1;HPM_P2
2023/01/22 00:00:14;;;;;;;0.00;0.00;;;0.80;99.90;;;;;;5020201;28;20032;-71
2023/01/22 00:02:40;;;;;;;0.00;0.00;;;0.80;99.90;;;;;;5015786;28;20378;-71
2023/01/22 00:05:06;;;;;;;0.53;0.30;;;0.80;99.90;;;;;;5016783;28;20029;-71
2023/01/22 00:07:32;;;;;;;0.13;0.13;;;0.80;99.90;;;;;;5016614;28;20017;-70
2023/01/22 00:09:58;;;;;;;0.00;0.00;;;0.80;99.90;;;;;;5020987;28;20098;-70
2023/01/22 00:12:24;;;;;;;0.00;0.00;;;0.70;99.90;;;;;;5011204;28;20045;-70
2023/01/22 00:14:51;;;;;;;0.00;0.00;;;0.70;99.90;;;;;;5019608;28;20017;-71
2023/01/22 00:17:17;;;;;;;0.38;0.22;;;0.70;99.90;;;;;;5016934;28;20104;-71
2023/01/22 00:19:43;;;;;;;0.00;0.00;;;0.80;99.90;;;;;;5016412;28;20120;-70
2023/01/22 00:22:11;;;;;;;0.00;0.00;;;0.80;99.90;;;;;;5015496;28;20268;-70
2023/01/22 00:24:38;;;;;;;0.00;0.00;;;0.80;99.90;;;;;;5015755;28;20104;-71
2023/01/22 00:27:05;;;;;;;0.00;0.00;;;0.80;99.90;;;;;;5021545;28;20501;-70
2023/01/22 00:29:31;;;;;;;;;;;0.70;99.90;;;;;;5017157;28;20100;-70
2023/01/22 00:31:56;;;;;;;0.00;0.00;;;0.80;99.90;;;;;;5015113;28;19916;-71
2023/01/22 00:34:22;;;;;;;0.00;0.00;;;0.80;99.90;;;;;;5016856;28;20025;-71
2023/01/22 00:36:48;;;;;;;1.20;0.30;;;0.80;99.90;;;;;;5019522;28;20061;-70
2023/01/22 00:39:13;;;;;;;0.00;0.00;;;0.80;99.90;;;;;;5016392;28;20101;-70
2023/01/22 00:41:40;;;;;;;0.00;0.00;;;0.80;99.90;;;;;;5016261;28;20397;-70
2023/01/22 00:44:06;;;;;;;0.70;0.32;;;0.80;99.90;;;;;;5015747;28;20025;-71
2023/01/22 00:46:32;;;;;;;0.00;0.00;;;0.80;99.90;;;;;;5016064;28;20017;-70
2023/01/22 00:48:58;;;;;;;0.00;0.00;;;0.80;99.90;;;;;;5018990;28;20486;-70
2023/01/22 00:51:24;;;;;;;0.00;0.00;;;0.80;99.90;;;;;;5014917;28;20018;-71
2023/01/22 00:53:49;;;;;;;0.00;0.00;;;0.80;99.90;;;;;;5020474;28;20030;-70
2023/01/22 00:56:15;;;;;;;0.00;0.00;;;0.80;99.90;;;;;;5016328;28;20558;-70
2023/01/22 00:58:42;;;;;;;0.00;0.00;;;0.80;99.90;;;;;;5016999;28;20025;-71
2023/01/22 01:01:08;;;;;;;0.00;0.00;;;0.80;99.90;;;;;;5014828;28;20013;-71
2023/01/22 01:03:35;;;;;;;0.00;0.00;;;0.90;99.90;;;;;;5016501;28;20022;-71
2023/01/22 01:06:07;;;;;;;0.63;0.63;;;0.90;99.90;;;;;;5014564;28;20022;-71
2023/01/22 01:08:38;;;;;;;0.00;0.00;;;0.90;99.90;;;;;;5020020;28;20620;-70
2023/01/22 01:11:06;;;;;;;0.00;0.00;;;0.90;99.90;;;;;;5014586;28;20041;-70
2023/01/22 01:13:37;;;;;;;0.00;0.00;;;0.90;99.90;;;;;;5016048;28;20087;-71
2023/01/22 01:16:08;;;;;;;0.00;0.00;;;0.90;99.90;;;;;;5020040;28;20029;-71
2023/01/22 01:18:34;;;;;;;0.00;0.00;;;1.00;99.90;;;;;;5015538;28;20444;-70
2023/01/22 01:21:00;;;;;;;0.00;0.00;;;1.00;99.90;;;;;;5015158;28;20044;-70
2023/01/22 01:23:27;;;;;;;0.00;0.00;;;1.00;99.90;;;;;;5016969;28;20034;-71
2023/01/22 01:25:53;;;;;;;0.00;0.00;;;1.00;99.90;;;;;;5021168;28;20506;-71
2023/01/22 01:28:19;;;;;;;0.00;0.00;;;1.00;99.90;;;;;;5021296;28;20047;-71
2023/01/22 01:30:45;;;;;;;0.00;0.00;;;1.00;99.90;;;;;;5019726;28;20021;-70
2023/01/22 01:33:11;;;;;;;0.00;0.00;;;1.00;99.90;;;;;;5022801;28;20099;-71
2023/01/22 01:35:37;;;;;;;0.33;0.33;;;0.90;99.90;;;;;;5020407;28;20514;-71
2023/01/22 01:38:03;;;;;;;0.00;0.00;;;1.10;99.90;;;;;;5018914;28;20822;-70
2023/01/22 01:40:29;;;;;;;0.00;0.00;;;1.00;99.90;;;;;;5023903;28;20029;-70
2023/01/22 01:42:55;;;;;;;0.00;0.00;;;1.00;99.90;;;;;;5019474;28;20043;-70
2023/01/22 01:45:23;;;;;;;0.00;0.00;;;1.00;99.90;;;;;;5019346;28;20041;-71
2023/01/22 01:48:11;;;;;;;0.00;0.00;;;1.00;99.90;;;;;;5031268;28;20463;-71
2023/01/22 01:50:40;;;;;;;0.00;0.00;;;1.00;99.90;;;;;;4986685;28;20037;-71
2023/01/22 01:53:07;;;;;;;0.38;0.38;;;1.00;99.90;;;;;;5017594;28;20045;-70
2023/01/22 01:55:36;;;;;;;0.00;0.00;;;1.00;99.90;;;;;;5021526;28;20021;-71
2023/01/22 01:58:09;;;;;;;0.00;0.00;;;1.00;99.90;;;;;;5018561;28;20478;-70
2023/01/22 02:00:37;;;;;;;0.10;0.10;;;1.00;99.90;;;;;;5018708;28;20017;-70
2023/01/22 02:03:03;;;;;;;0.00;0.00;;;1.00;99.90;;;;;;5018078;28;20033;-70
2023/01/22 02:05:35;;;;;;;0.00;0.00;;;1.00;99.90;;;;;;5023446;28;20021;-70
2023/01/22 02:08:01;;;;;;;0.20;0.20;;;1.00;99.90;;;;;;5015043;28;20116;-71
2023/01/22 02:10:27;;;;;;;0.00;0.00;;;1.00;99.90;;;;;;5019684;28;20013;-70
2023/01/22 02:12:56;;;;;;;0.00;0.00;;;1.00;99.90;;;;;;5022269;28;20029;-71
2023/01/22 02:15:22;;;;;;;0.00;0.00;;;1.00;99.90;;;;;;5021312;28;20032;-72
2023/01/22 02:17:48;;;;;;;0.00;0.00;;;1.00;99.90;;;;;;5018099;28;20032;-71
2023/01/22 02:20:14;;;;;;;0.00;0.00;;;1.00;99.90;;;;;;5023991;28;20025;-70
2023/01/22 02:22:40;;;;;;;0.00;0.00;;;1.00;99.90;;;;;;5017204;28;20147;-70
2023/01/22 02:25:08;;;;;;;0.00;0.00;;;1.00;99.90;;;;;;5014287;28;20124;-71
2023/01/22 02:27:34;;;;;;;0.00;0.00;;;1.00;99.90;;;;;;5021321;28;20050;-71
2023/01/22 02:29:59;;;;;;;0.00;0.00;;;1.00;99.90;;;;;;5018867;28;20067;-71
2023/01/22 02:32:27;;;;;;;0.00;0.00;;;1.00;99.90;;;;;;5021075;28;20688;-70
2023/01/22 02:34:53;;;;;;;0.00;0.00;;;1.00;99.90;;;;;;5022442;28;20025;-70
2023/01/22 02:37:19;;;;;;;0.05;0.05;;;1.00;99.90;;;;;;5017848;28;20029;-70
2023/01/22 02:39:44;;;;;;;0.00;0.00;;;1.00;99.90;;;;;;5018406;28;20646;-70
2023/01/22 02:42:11;;;;;;;0.00;0.00;;;1.00;99.90;;;;;;5021770;28;20562;-70
2023/01/22 02:44:37;;;;;;;0.00;0.00;;;1.00;99.90;;;;;;5017134;28;20079;-70
2023/01/22 02:47:03;;;;;;;0.00;0.00;;;1.00;99.90;;;;;;5016633;28;20029;-71
2023/01/22 02:49:28;;;;;;;0.00;0.00;;;1.00;99.90;;;;;;5021015;28;20017;-70
2023/01/22 02:51:56;;;;;;;0.00;0.00;;;1.00;99.90;;;;;;5019845;28;20100;-70
2023/01/22 02:54:22;;;;;;;0.00;0.00;;;1.00;99.90;;;;;;5021726;28;20026;-70
2023/01/22 02:56:48;;;;;;;;;;;1.00;99.90;;;;;;5014390;28;20021;-70
2023/01/22 02:59:14;;;;;;;0.00;0.00;;;1.00;99.90;;;;;;5018291;28;19905;-70
2023/01/22 03:01:39;;;;;;;0.00;0.00;;;1.00;99.90;;;;;;5020410;28;20041;-70
2023/01/22 03:04:11;;;;;;;0.00;0.00;;;1.00;99.90;;;;;;5016504;28;20029;-70
2023/01/22 03:06:39;;;;;;;0.00;0.00;;;1.00;99.90;;;;;;5017652;28;20039;-70
2023/01/22 03:09:06;;;;;;;0.00;0.00;;;1.00;99.90;;;;;;5020713;28;20033;-72
2023/01/22 03:11:33;;;;;;;0.00;0.00;;;1.00;99.90;;;;;;5016867;28;20100;-70
2023/01/22 03:22:14;;;;;;;0.45;0.45;;;1.00;99.90;;;;;;5016180;28;20040;-70
2023/01/22 03:24:40;;;;;;;0.00;0.00;;;1.00;99.90;;;;;;5018017;28;20020;-70
2023/01/22 03:27:08;;;;;;;0.03;0.03;;;1.00;99.90;;;;;;5013575;28;22459;-69
2023/01/22 03:29:37;;;;;;;0.00;0.00;;;1.00;99.90;;;;;;5022643;28;20064;-70
2023/01/22 03:32:04;;;;;;;0.00;0.00;;;1.00;99.90;;;;;;5017731;28;20032;-70
2023/01/22 03:34:29;;;;;;;0.00;0.00;;;0.90;99.90;;;;;;5017305;28;20013;-70
2023/01/22 03:36:55;;;;;;;0.00;0.00;;;0.90;99.90;;;;;;5017752;28;20021;-70
2023/01/22 03:39:21;;;;;;;0.00;0.00;;;1.00;99.90;;;;;;5017544;28;20026;-70
2023/01/22 03:41:46;;;;;;;0.23;0.23;;;1.00;99.90;;;;;;5016644;28;20017;-70
2023/01/22 03:44:13;;;;;;;0.00;0.00;;;1.00;99.90;;;;;;5016305;28;20980;-70
2023/01/22 03:46:39;;;;;;;0.00;0.00;;;1.00;99.90;;;;;;5034759;28;20021;-70
2023/01/22 03:49:06;;;;;;;0.00;0.00;;;1.00;99.90;;;;;;5014944;28;20037;-70
2023/01/22 03:51:32;;;;;;;0.00;0.00;;;1.00;99.90;;;;;;5013380;28;20021;-70
2023/01/22 03:53:58;;;;;;;0.00;0.00;;;1.00;99.90;;;;;;5018933;28;20045;-71
2023/01/22 03:56:25;;;;;;;0.00;0.00;;;1.00;99.90;;;;;;5014769;28;20463;-70
2023/01/22 03:58:51;;;;;;;;;;;0.90;99.90;;;;;;5016220;28;20030;-69
2023/01/22 04:01:23;;;;;;;0.00;0.00;;;0.90;99.90;;;;;;5013449;28;19955;-69
2023/01/22 04:03:50;;;;;;;0.00;0.00;;;1.00;99.90;;;;;;5019795;28;20033;-70
2023/01/22 04:06:16;;;;;;;0.45;0.45;;;1.00;99.90;;;;;;5014539;28;20036;-70
2023/01/22 04:08:43;;;;;;;0.00;0.00;;;1.00;99.90;;;;;;5019818;28;20099;-70
2023/01/22 04:11:10;;;;;;;0.00;0.00;;;0.90;99.90;;;;;;5015201;28;20025;-70
2023/01/22 04:13:37;;;;;;;0.00;0.00;;;1.00;99.90;;;;;;5020637;28;20025;-70
2023/01/22 04:16:04;;;;;;;0.00;0.00;;;1.00;99.90;;;;;;5014734;28;20128;-70
2023/01/22 04:18:30;;;;;;;;;;;0.90;99.90;;;;;;5016151;28;20036;-70
2023/01/22 04:20:57;;;;;;;0.00;0.00;;;0.90;99.90;;;;;;5016186;28;20549;-70
2023/01/22 04:23:24;;;;;;;0.00;0.00;;;0.90;99.90;;;;;;5017867;28;20698;-70
2023/01/22 04:25:50;;;;;;;0.00;0.00;;;0.90;99.90;;;;;;5016444;28;20029;-70
2023/01/22 04:28:16;;;;;;;;;;;1.00;99.90;;;;;;5018866;28;20029;-70
2023/01/22 04:30:44;;;;;;;0.00;0.00;;;1.00;99.90;;;;;;5015697;28;19912;-70
2023/01/22 04:33:10;;;;;;;0.00;0.00;;;1.00;99.90;;;;;;5019862;28;20448;-71
2023/01/22 04:35:36;;;;;;;0.00;0.00;;;1.00;99.90;;;;;;5016029;28;21335;-70
2023/01/22 04:38:04;;;;;;;0.15;0.15;;;1.00;99.90;;;;;;5017167;28;20033;-69
2023/01/22 04:40:30;;;;;;;0.00;0.00;;;0.90;99.90;;;;;;5017315;28;20106;-70
2023/01/22 04:43:03;;;;;;;0.00;0.00;;;1.00;99.90;;;;;;5016246;28;20047;-70
2023/01/22 04:45:29;;;;;;;0.00;0.00;;;0.90;99.90;;;;;;5013461;28;20022;-70
2023/01/22 04:47:55;;;;;;;0.00;0.00;;;0.90;99.90;;;;;;5018595;28;20029;-69
2023/01/22 04:50:30;;;;;;;0.00;0.00;;;1.00;99.90;;;;;;5014957;28;20033;-70
2023/01/22 04:52:57;;;;;;;0.00;0.00;;;1.00;99.90;;;;;;5013705;28;20037;-69
2023/01/22 04:55:25;;;;;;;0.00;0.00;;;1.00;99.90;;;;;;5016766;28;20032;-70
2023/01/22 04:57:56;;;;;;;0.00;0.00;;;1.00;99.90;;;;;;5017296;28;20049;-70
2023/01/22 05:00:23;;;;;;;0.00;0.00;;;1.00;99.90;;;;;;5021129;28;20044;-70
2023/01/22 05:02:49;;;;;;;;;;;1.00;99.90;;;;;;5020667;28;20478;-70
2023/01/22 05:05:15;;;;;;;0.00;0.00;;;1.00;99.90;;;;;;5021665;28;19909;-70
2023/01/22 05:07:41;;;;;;;0.00;0.00;;;1.00;99.90;;;;;;5018683;28;20033;-70
2023/01/22 05:10:07;;;;;;;0.00;0.00;;;1.00;99.90;;;;;;5023871;28;20415;-70
2023/01/22 05:12:33;;;;;;;0.00;0.00;;;1.00;99.90;;;;;;5018383;28;20028;-70
2023/01/22 05:14:59;;;;;;;0.00;0.00;;;1.00;99.90;;;;;;5023804;28;20394;-69
2023/01/22 05:17:24;;;;;;;0.00;0.00;;;1.00;99.90;;;;;;5035430;28;20363;-70
2023/01/22 05:19:50;;;;;;;0.00;0.00;;;1.00;99.90;;;;;;5020132;28;20434;-70
2023/01/22 05:22:18;;;;;;;0.00;0.00;;;1.10;99.90;;;;;;5018851;28;20025;-70
2023/01/22 05:24:43;;;;;;;0.40;0.40;;;1.10;99.90;;;;;;5015821;28;20034;-70
2023/01/22 05:27:09;;;;;;;0.00;0.00;;;1.10;99.90;;;;;;5024150;28;20462;-70
2023/01/22 05:29:35;;;;;;;0.00;0.00;;;1.00;99.90;;;;;;5019055;28;20014;-70
2023/01/22 05:32:00;;;;;;;0.00;0.00;;;1.10;99.90;;;;;;5023055;28;20526;-70
2023/01/22 05:34:26;;;;;;;0.00;0.00;;;1.00;99.90;;;;;;5019396;28;20467;-70
2023/01/22 05:36:52;;;;;;;0.00;0.00;;;1.00;99.90;;;;;;5019292;28;20075;-70
2023/01/22 05:39:18;;;;;;;0.00;0.00;;;1.10;99.90;;;;;;5019691;28;20075;-70
2023/01/22 05:41:44;;;;;;;0.07;0.07;;;1.10;99.90;;;;;;5018634;28;20822;-70
2023/01/22 05:44:12;;;;;;;0.00;0.00;;;1.10;99.90;;;;;;5020531;28;20029;-70
2023/01/22 05:46:37;;;;;;;0.00;0.00;;;1.10;99.90;;;;;;5023178;28;20060;-70
2023/01/22 05:49:04;;;;;;;0.00;0.00;;;1.10;99.90;;;;;;5019053;28;20112;-70
2023/01/22 05:51:29;;;;;;;0.00;0.00;;;1.00;99.90;;;;;;5020001;28;20021;-70
2023/01/22 05:53:55;;;;;;;0.00;0.00;;;1.00;99.90;;;;;;5023905;28;20056;-70
2023/01/22 05:56:21;;;;;;;0.30;0.30;;;0.90;99.90;;;;;;5019087;28;20021;-70
2023/01/22 05:58:47;;;;;;;0.00;0.00;;;1.00;99.90;;;;;;5018754;28;20079;-70
2023/01/22 06:01:12;;;;;;;0.00;0.00;;;1.00;99.90;;;;;;5018604;28;20021;-70
2023/01/22 06:03:38;;;;;;;0.00;0.00;;;1.00;99.90;;;;;;5023011;28;20032;-70
2023/01/22 06:06:06;;;;;;;0.00;0.00;;;0.90;99.90;;;;;;5015776;28;20018;-70
2023/01/22 06:08:33;;;;;;;0.00;0.00;;;0.90;99.90;;;;;;5022683;28;20036;-70
2023/01/22 06:11:04;;;;;;;0.00;0.00;;;1.00;99.90;;;;;;5016254;28;20045;-70
2023/01/22 06:13:31;;;;;;;0.00;0.00;;;1.00;99.90;;;;;;5019064;28;20021;-69
2023/01/22 06:15:57;;;;;;;;;;;1.00;99.90;;;;;;5019444;28;20108;-70
2023/01/22 06:18:24;;;;;;;0.00;0.00;;;1.00;99.90;;;;;;5018154;28;20020;-70
2023/01/22 06:20:50;;;;;;;0.00;0.00;;;1.10;99.90;;;;;;5015496;28;20497;-70
2023/01/22 06:23:16;;;;;;;0.00;0.00;;;1.10;99.90;;;;;;5019837;28;20083;-69
2023/01/22 06:25:43;;;;;;;0.00;0.00;;;1.10;99.90;;;;;;5022177;28;20047;-69
2023/01/22 06:28:09;;;;;;;0.00;0.00;;;1.10;99.90;;;;;;5022865;28;20086;-70
2023/01/22 06:30:35;;;;;;;;;;;1.10;99.90;;;;;;5018539;28;20034;-69
2023/01/22 06:33:01;;;;;;;0.00;0.00;;;1.10;99.90;;;;;;5019329;28;19916;-70
2023/01/22 06:35:27;;;;;;;0.00;0.00;;;1.10;99.90;;;;;;5022092;28;20422;-70
2023/01/22 06:37:53;;;;;;;0.00;0.00;;;1.10;99.90;;;;;;5018878;28;20058;-70
2023/01/22 06:40:19;;;;;;;0.00;0.00;;;1.10;99.90;;;;;;5018748;28;20026;-69
2023/01/22 06:42:44;;;;;;;0.00;0.00;;;1.10;99.90;;;;;;5017769;28;20371;-69
2023/01/22 06:45:10;;;;;;;0.00;0.00;;;1.10;99.90;;;;;;5022099;28;20029;-70
2023/01/22 06:47:36;;;;;;;0.00;0.00;;;1.10;99.90;;;;;;5017052;28;20025;-69
2023/01/22 06:50:03;;;;;;;0.00;0.00;;;1.10;99.90;;;;;;5016519;28;20030;-70
2023/01/22 06:52:28;;;;;;;0.00;0.00;;;1.10;99.90;;;;;;5017214;28;20025;-70
2023/01/22 06:54:54;;;;;;;0.00;0.00;;;1.20;99.90;;;;;;5018283;28;20455;-70
2023/01/22 06:57:20;;;;;;;0.00;0.00;;;1.20;99.90;;;;;;5018179;28;20025;-70
2023/01/22 06:59:45;;;;;;;0.00;0.00;;;1.10;99.90;;;;;;5018194;28;20018;-70
2023/01/22 07:02:16;;;;;;;0.00;0.00;;;1.10;99.90;;;;;;5018481;28;20029;-69
2023/01/22 07:04:41;;;;;;;0.00;0.00;;;1.00;99.90;;;;;;5017302;28;21447;-70
2023/01/22 07:07:07;;;;;;;0.00;0.00;;;1.00;99.90;;;;;;5016769;28;20116;-69
2023/01/22 07:09:33;;;;;;;0.00;0.00;;;1.00;99.90;;;;;;5021578;28;20036;-70
2023/01/22 07:11:59;;;;;;;0.00;0.00;;;1.00;99.90;;;;;;5017041;28;20625;-70
2023/01/22 07:14:26;;;;;;;0.00;0.00;;;1.00;99.90;;;;;;5017485;28;20088;-71
2023/01/22 07:16:51;;;;;;;0.00;0.00;;;1.10;99.90;;;;;;5021721;28;20455;-71
2023/01/22 07:19:17;;;;;;;0.00;0.00;;;1.10;99.90;;;;;;5017445;28;20034;-71
2023/01/22 07:21:43;;;;;;;0.00;0.00;;;1.10;99.90;;;;;;5016409;28;20400;-71
2023/01/22 07:24:10;;;;;;;0.00;0.00;;;1.20;99.90;;;;;;5019568;28;20025;-71
2023/01/22 07:26:35;;;;;;;;;;;1.10;99.90;;;;;;5016729;28;20030;-70
2023/01/22 07:29:01;;;;;;;0.00;0.00;;;1.10;99.90;;;;;;5020894;28;19992;-71
2023/01/22 07:31:27;;;;;;;0.00;0.00;;;1.10;99.90;;;;;;5018557;28;20427;-71
2023/01/22 07:33:53;;;;;;;0.00;0.00;;;1.10;99.90;;;;;;5014118;28;20052;-71
2023/01/22 07:36:19;;;;;;;0.00;0.00;;;1.20;99.90;;;;;;5018390;28;20471;-70
2023/01/22 07:38:45;;;;;;;0.00;0.00;;;1.30;99.90;;;;;;5016915;28;20511;-71
2023/01/22 07:41:10;;;;;;;0.00;0.00;;;1.30;99.90;;;;;;5015713;28;20032;-70
2023/01/22 07:43:36;;;;;;;0.00;0.00;;;1.30;99.90;;;;;;5017148;28;20057;-70
2023/01/22 07:46:04;;;;;;;0.00;0.00;;;1.30;99.90;;;;;;5016454;28;20033;-71
2023/01/22 07:48:30;;;;;;;0.00;0.00;;;1.40;99.90;;;;;;5020664;28;20032;-70
2023/01/22 07:50:59;;;;;;;0.00;0.00;;;1.40;99.90;;;;;;5015965;28;20422;-71
2023/01/22 07:53:26;;;;;;;0.00;0.00;;;1.40;99.90;;;;;;5013340;28;20017;-70
2023/01/22 07:55:53;;;;;;;0.00;0.00;;;1.40;99.90;;;;;;5014951;28;20025;-70
2023/01/22 07:58:19;;;;;;;0.00;0.00;;;1.40;99.90;;;;;;5018186;28;20029;-71
2023/01/22 08:00:44;;;;;;;0.03;0.03;;;1.40;99.90;;;;;;5017408;28;20029;-70
2023/01/22 08:03:12;;;;;;;0.00;0.00;;;1.40;99.90;;;;;;5020891;28;21500;-70
2023/01/22 08:05:39;;;;;;;0.00;0.00;;;1.40;99.90;;;;;;5018033;28;20025;-71
2023/01/22 08:08:10;;;;;;;0.00;0.00;;;1.40;99.90;;;;;;5016619;28;20037;-70
2023/01/22 08:10:37;;;;;;;0.00;0.00;;;1.40;99.90;;;;;;5016622;28;20025;-71
2023/01/22 08:13:03;;;;;;;0.00;0.00;;;1.50;99.90;;;;;;5016799;28;20100;-71
2023/01/22 08:15:30;;;;;;;0.10;0.10;;;1.50;99.90;;;;;;5017432;28;20401;-71
2023/01/22 08:17:55;;;;;;;0.20;0.20;;;1.50;99.90;;;;;;5011489;28;20060;-70
2023/01/22 08:20:21;;;;;;;0.00;0.00;;;1.50;99.90;;;;;;5019366;28;20108;-70
2023/01/22 08:22:47;;;;;;;0.00;0.00;;;1.60;99.90;;;;;;5013857;28;20025;-70
2023/01/22 08:25:13;;;;;;;0.00;0.00;;;1.60;99.90;;;;;;5017281;28;20037;-71
2023/01/22 08:27:39;;;;;;;0.00;0.00;;;1.70;99.90;;;;;;5013860;28;20033;-71
2023/01/22 08:30:06;;;;;;;0.00;0.00;;;1.70;99.90;;;;;;5017245;28;20083;-71
2023/01/22 08:32:32;;;;;;;0.00;0.00;;;1.70;99.90;;;;;;5020042;28;20116;-70
2023/01/22 08:34:58;;;;;;;0.00;0.00;;;1.70;99.90;;;;;;5021951;28;20088;-70
2023/01/22 08:37:23;;;;;;;0.00;0.00;;;1.60;99.90;;;;;;5020841;28;20053;-71
2023/01/22 08:39:49;;;;;;;0.00;0.00;;;1.60;99.90;;;;;;5023809;28;20037;-71
2023/01/22 08:42:15;;;;;;;0.00;0.00;;;1.60;99.90;;;;;;5020654;28;20022;-71
2023/01/22 08:44:41;;;;;;;0.00;0.00;;;1.60;99.90;;;;;;5022141;28;20037;-72
2023/01/22 08:47:09;;;;;;;0.00;0.00;;;1.70;99.90;;;;;;5021976;28;20044;-71
2023/01/22 08:49:36;;;;;;;0.00;0.00;;;1.70;99.90;;;;;;5016988;28;20060;-71
2023/01/22 08:52:02;;;;;;;;;;;1.80;99.90;;;;;;5020451;28;20021;-72
2023/01/22 08:54:27;;;;;;;0.00;0.00;;;1.80;99.90;;;;;;5021575;28;19932;-71
2023/01/22 08:56:53;;;;;;;0.00;0.00;;;1.80;99.90;;;;;;5025025;28;20045;-70
2023/01/22 08:59:19;;;;;;;0.00;0.00;;;1.90;99.90;;;;;;5019275;28;20022;-70
2023/01/22 09:01:44;;;;;;;0.00;0.00;;;1.90;99.90;;;;;;5020318;28;20025;-69
2023/01/22 09:04:10;;;;;;;0.00;0.00;;;1.90;99.90;;;;;;5021453;28;20481;-69
2023/01/22 09:06:37;;;;;;;0.00;0.00;;;1.90;99.90;;;;;;5019261;28;20033;-69
2023/01/22 09:09:03;;;;;;;0.00;0.00;;;1.90;99.90;;;;;;5021288;28;20108;-69
2023/01/22 09:11:30;;;;;;;0.00;0.00;;;2.00;99.90;;;;;;5019737;28;20030;-70
2023/01/22 09:13:56;;;;;;;0.00;0.00;;;2.00;99.90;;;;;;5017968;28;20464;-70
2023/01/22 09:16:24;;;;;;;1.08;0.38;;;2.00;99.90;;;;;;5023670;28;20071;-70
2023/01/22 09:18:50;;;;;;;0.00;0.00;;;2.00;99.90;;;;;;5020881;28;20025;-70
2023/01/22 09:21:16;;;;;;;0.00;0.00;;;2.00;99.90;;;;;;5020284;28;20045;-70
2023/01/22 09:23:42;;;;;;;0.00;0.00;;;2.00;99.90;;;;;;5018345;28;20044;-71
2023/01/22 09:26:08;;;;;;;0.00;0.00;;;2.00;99.90;;;;;;5019990;28;20264;-70
2023/01/22 09:28:33;;;;;;;0.00;0.00;;;2.00;99.90;;;;;;5019647;28;20029;-70
2023/01/22 09:30:59;;;;;;;0.00;0.00;;;1.90;99.90;;;;;;5023654;28;20036;-71
2023/01/22 09:33:25;;;;;;;0.00;0.00;;;1.80;99.90;;;;;;5020613;28;20136;-70
2023/01/22 09:35:50;;;;;;;0.00;0.00;;;1.90;99.90;;;;;;5019474;28;20025;-70
2023/01/22 09:38:20;;;;;;;0.00;0.00;;;1.90;99.90;;;;;;5021128;28;20017;-71
2023/01/22 09:40:53;;;;;;;0.00;0.00;;;1.90;99.90;;;;;;5015974;28;20053;-72
2023/01/22 09:44:08;;;;;;;0.00;0.00;;;1.90;99.90;;;;;;5034893;28;20481;-70
2023/01/22 09:46:55;;;;;;;0.00;0.00;;;1.90;99.90;;;;;;4944128;28;20034;-71
2023/01/22 09:49:29;;;;;;;0.00;0.00;;;1.90;99.90;;;;;;4950641;28;20027;-71
2023/01/22 09:51:58;;;;;;;0.00;0.00;;;2.00;99.90;;;;;;5011032;28;20061;-71
2023/01/22 09:54:24;;;;;;;0.00;0.00;;;2.10;99.90;;;;;;5019419;28;20568;-71
2023/01/22 09:56:52;;;;;;;0.00;0.00;;;2.20;99.90;;;;;;5020293;28;20108;-70
2023/01/22 09:59:25;;;;;;;0.00;0.00;;;2.20;99.90;;;;;;5019993;28;20017;-70
2023/01/22 10:01:57;;;;;;;0.00;0.00;;;2.20;99.90;;;;;;5014826;28;20048;-70
2023/01/22 10:04:42;;;;;;;0.00;0.00;;;2.30;99.90;;;;;;5018409;28;20022;-70
2023/01/22 10:07:31;;;;;;;0.00;0.00;;;2.40;99.90;;;;;;5018789;28;20037;-71
2023/01/22 10:10:02;;;;;;;0.00;0.00;;;2.50;99.90;;;;;;5020766;28;20021;-70
2023/01/22 10:12:28;;;;;;;0.00;0.00;;;2.70;99.90;;;;;;5016437;28;20045;-70
2023/01/22 10:14:55;;;;;;;0.00;0.00;;;2.90;99.90;;;;;;5018069;28;20037;-70
2023/01/22 10:17:30;;;;;;;0.00;0.00;;;3.00;99.90;;;;;;5020691;28;20402;-71
2023/01/22 10:20:00;;;;;;;0.00;0.00;;;3.20;99.90;;;;;;5021876;28;20026;-71
2023/01/22 10:22:26;;;;;;;0.00;0.00;;;3.20;99.90;;;;;;5018472;28;20030;-71
2023/01/22 10:24:53;;;;;;;0.00;0.00;;;3.30;99.90;;;;;;5024545;28;20479;-71
2023/01/22 10:27:38;;;;;;;0.00;0.00;;;3.30;99.90;;;;;;5035301;28;20033;-70
2023/01/22 10:30:06;;;;;;;0.00;0.00;;;3.30;99.90;;;;;;5037551;28;20092;-71
2023/01/22 10:32:32;;;;;;;0.00;0.00;;;3.30;99.90;;;;;;5020498;28;20486;-72
2023/01/22 10:35:15;;;;;;;0.00;0.00;;;3.30;99.90;;;;;;5021432;28;20025;-72
2023/01/22 10:37:47;;;;;;;0.00;0.00;;;3.30;99.90;;;;;;5015432;28;20111;-72
2023/01/22 10:40:29;;;;;;;0.00;0.00;;;3.20;99.90;;;;;;5021814;28;20029;-72
2023/01/22 10:43:13;;;;;;;0.00;0.00;;;3.10;99.90;;;;;;5014505;28;20529;-72
2023/01/22 10:45:53;;;;;;;0.00;0.00;;;3.10;99.90;;;;;;5016197;28;20579;-72
2023/01/22 10:48:19;;;;;;;0.00;0.00;;;3.10;99.90;;;;;;5034104;28;20063;-72
2023/01/22 10:50:45;;;;;;;0.00;0.00;;;3.20;99.90;;;;;;5018645;28;20104;-71
2023/01/22 10:53:19;;;;;;;0.00;0.00;;;3.10;99.90;;;;;;5017070;28;20048;-71
2023/01/22 10:55:52;;;;;;;0.00;0.00;;;3.20;99.90;;;;;;5018927;28;20044;-71
2023/01/22 10:58:20;;;;;;;0.00;0.00;;;3.20;99.90;;;;;;5014809;28;20362;-70
2023/01/22 11:01:05;;;;;;;0.00;0.00;;;3.20;99.90;;;;;;5019150;28;20025;-71
2023/01/22 11:03:37;;;;;;;0.00;0.00;;;3.20;99.90;;;;;;5018159;28;20113;-72
2023/01/22 11:06:29;;;;;;;0.00;0.00;;;3.30;99.90;;;;;;5019825;28;20171;-73
2023/01/22 11:09:06;;;;;;;0.00;0.00;;;3.40;99.90;;;;;;5009488;28;20053;-70
2023/01/22 11:11:38;;;;;;;0.00;0.00;;;3.50;99.90;;;;;;5018109;28;20037;-71
2023/01/22 11:14:12;;;;;;;0.00;0.00;;;3.60;99.90;;;;;;5017843;28;20034;-70
2023/01/22 11:16:39;;;;;;;0.00;0.00;;;3.60;99.90;;;;;;5017124;28;20028;-71
2023/01/22 11:19:11;;;;;;;0.00;0.00;;;3.60;99.90;;;;;;5014180;28;20102;-70
2023/01/22 11:21:45;;;;;;;0.00;0.00;;;3.70;99.90;;;;;;5018488;28;20041;-71
2023/01/22 11:24:12;;;;;;;0.00;0.00;;;3.70;99.90;;;;;;5018160;28;20025;-70
2023/01/22 11:27:14;;;;;;;0.00;0.00;;;3.80;99.90;;;;;;5018156;28;20101;-71
2023/01/22 11:30:33;;;;;;;0.00;0.00;;;3.90;99.90;;;;;;5016977;28;20112;-71
2023/01/22 11:33:17;;;;;;;0.00;0.00;;;4.10;99.90;;;;;;4997031;28;20041;-71
2023/01/22 11:36:27;;;;;;;0.00;0.00;;;4.20;99.90;;;;;;5019471;28;21069;-70
2023/01/22 11:39:01;;;;;;;0.00;0.00;;;4.30;99.90;;;;;;4957559;28;20031;-71
2023/01/22 11:42:03;;;;;;;0.00;0.00;;;4.10;99.90;;;;;;5012014;28;20362;-71
2023/01/22 11:44:46;;;;;;;0.00;0.00;;;4.00;99.90;;;;;;5015730;28;20029;-70
2023/01/22 11:47:36;;;;;;;0.00;0.00;;;4.00;99.90;;;;;;5019191;28;20654;-71
2023/01/22 11:50:07;;;;;;;0.00;0.00;;;4.00;99.90;;;;;;5020106;28;20064;-70
2023/01/22 11:52:52;;;;;;;0.00;0.00;;;3.90;99.90;;;;;;5017638;28;20462;-71
2023/01/22 11:55:50;;;;;;;0.00;0.00;;;3.90;99.90;;;;;;5014205;28;20029;-71
2023/01/22 11:58:38;;;;;;;0.00;0.00;;;3.90;99.90;;;;;;5015521;28;20061;-70
2023/01/22 12:01:20;;;;;;;0.00;0.00;;;3.70;99.90;;;;;;5016765;28;20140;-70
2023/01/22 12:04:19;;;;;;;0.00;0.00;;;3.60;99.90;;;;;;5017144;28;20102;-71
2023/01/22 12:06:59;;;;;;;0.00;0.00;;;3.70;99.90;;;;;;5011460;28;20585;-71
2023/01/22 12:09:33;;;;;;;0.00;0.00;;;3.50;99.90;;;;;;5012341;28;20112;-70
2023/01/22 12:12:18;;;;;;;0.00;0.00;;;3.40;99.90;;;;;;5014146;28;20028;-70
2023/01/22 12:15:09;;;;;;;0.00;0.00;;;3.30;99.90;;;;;;5012313;28;20040;-71
2023/01/22 12:17:58;;;;;;;0.00;0.00;;;3.20;99.90;;;;;;5018626;28;20080;-70
2023/01/22 12:20:32;;;;;;;0.00;0.00;;;3.20;99.90;;;;;;4969122;28;20029;-70
2023/01/22 12:23:03;;;;;;;0.00;0.00;;;3.30;99.90;;;;;;5014257;28;20026;-71
2023/01/22 12:25:47;;;;;;;0.00;0.00;;;3.30;99.90;;;;;;5018811;28;20551;-71
2023/01/22 12:28:22;;;;;;;0.00;0.00;;;3.30;99.90;;;;;;5018373;28;20751;-72
2023/01/22 12:31:04;;;;;;;0.00;0.00;;;3.30;99.90;;;;;;5032234;28;20025;-72
2023/01/22 12:33:37;;;;;;;0.00;0.00;;;3.30;99.90;;;;;;5015367;28;20017;-72
2023/01/22 12:36:05;;;;;;;0.00;0.00;;;3.30;99.90;;;;;;5020265;28;20130;-71
2023/01/22 12:39:01;;;;;;;0.00;0.00;;;3.50;99.90;;;;;;5019076;28;20136;-71
2023/01/22 12:41:46;;;;;;;0.00;0.00;;;3.30;99.90;;;;;;5014103;28;20049;-72
2023/01/22 12:44:29;;;;;;;0.00;0.00;;;3.40;99.90;;;;;;5028368;28;20037;-72
2023/01/22 12:47:14;;;;;;;0.00;0.00;;;3.40;99.90;;;;;;5013819;28;20033;-72
2023/01/22 12:49:50;;;;;;;0.00;0.00;;;3.30;99.90;;;;;;5019043;28;20052;-71
2023/01/22 12:52:38;;;;;;;0.00;0.00;;;3.30;99.90;;;;;;5016975;28;20429;-72
2023/01/22 12:55:26;;;;;;;0.00;0.00;;;3.20;99.90;;;;;;5017495;28;20059;-72
2023/01/22 12:57:52;;;;;;;0.00;0.00;;;3.30;99.90;;;;;;5011648;28;20376;-72
2023/01/22 13:00:30;;;;;;;0.00;0.00;;;3.40;99.90;;;;;;5017232;28;20033;-71
2023/01/22 13:02:56;;;;;;;0.52;0.52;;;3.30;99.90;;;;;;5017236;28;20036;-72
2023/01/22 13:05:25;;;;;;;0.00;0.00;;;3.40;99.90;;;;;;5018508;28;20074;-71
2023/01/22 13:08:22;;;;;;;0.00;0.00;;;3.50;99.90;;;;;;5019373;28;20033;-72
2023/01/22 13:11:00;;;;;;;0.00;0.00;;;3.50;99.90;;;;;;5015435;28;20033;-73
2023/01/22 13:13:31;;;;;;;;;;;3.60;99.90;;;;;;5015140;28;20028;-72
2023/01/22 13:16:25;;;;;;;0.00;0.00;;;3.50;99.90;;;;;;5017774;28;19909;-72
2023/01/22 13:18:54;;;;;;;0.00;0.00;;;3.40;99.90;;;;;;5012283;28;20069;-72
2023/01/22 13:21:29;;;;;;;0.00;0.00;;;3.40;99.90;;;;;;5034848;28;20057;-72